Time;durP1;ratioP1;P1;durP2;ratioP2;P2;SDS_P1;SDS_P2;PMS_P1;PMS_P2;Temp;Humidity;BMP_temperature;BMP_pressure;BME280_temperature;BME280_humidity;BME280_pressure;Samples;Min_cycle;Max_cycle;Signal;HPM_P1;HPM_P2
2022/12/07 00:00:21;;;;;;;12.15;7.25;;;;;;;1.40;100.00;95780.44;1047062;28;20788;-67
2022/12/07 00:00:51;;;;;;;11.70;6.47;;;;;;;1.42;100.00;95781.03;1050761;28;20028;-69
2022/12/07 00:01:32;;;;;;;10.95;6.90;;;;;;;1.39;100.00;95782.22;1051137;28;20024;-69
2022/12/07 00:02:03;;;;;;;13.82;7.15;;;;;;;1.40;100.00;95788.19;1050887;28;20035;-68
2022/12/07 00:02:33;;;;;;;12.38;7.18;;;;;;;1.40;100.00;95785.59;1049898;28;21075;-69
2022/12/07 00:03:04;;;;;;;12.48;7.25;;;;;;;1.40;100.00;95783.03;1046928;28;20024;-69
2022/12/07 00:03:35;;;;;;;11.82;7.03;;;;;;;1.41;100.00;95789.81;1046616;28;20112;-69
2022/12/07 00:04:06;;;;;;;12.25;6.93;;;;;;;1.42;100.00;95786.22;1042814;28;20678;-69
2022/12/07 00:04:36;;;;;;;13.23;6.95;;;;;;;1.41;100.00;95779.47;1046688;28;20036;-68
2022/12/07 00:05:07;;;;;;;12.35;7.20;;;;;;;1.42;100.00;95789.59;1051042;28;20918;-69
2022/12/07 00:05:38;;;;;;;12.95;6.93;;;;;;;1.42;100.00;95787.00;1047124;28;20056;-70
2022/12/07 00:06:09;;;;;;;10.90;6.78;;;;;;;1.26;100.00;95768.56;1050789;28;20117;-71
2022/12/07 00:06:41;;;;;;;11.27;6.57;;;;;;;1.37;100.00;95780.84;1042230;28;20055;-70
2022/12/07 00:07:11;;;;;;;9.68;6.63;;;;;;;1.39;100.00;95786.63;1043268;28;20263;-70
2022/12/07 00:07:42;;;;;;;10.77;6.78;;;;;;;1.42;100.00;95786.22;1042247;28;20271;-69
2022/12/07 00:08:12;;;;;;;11.90;6.95;;;;;;;1.45;100.00;95785.81;1039497;28;20478;-68
2022/12/07 00:08:43;;;;;;;14.13;7.55;;;;;;;1.42;100.00;95788.78;1046542;28;20878;-69
2022/12/07 00:09:16;;;;;;;11.73;7.75;;;;;;;1.39;100.00;95778.84;1038365;28;20029;-68
2022/12/07 00:09:46;;;;;;;11.95;7.00;;;;;;;1.40;100.00;95781.22;1039263;28;20041;-69
2022/12/07 00:10:17;;;;;;;13.82;7.72;;;;;;;1.38;100.00;95780.66;1038440;28;20637;-68
2022/12/07 00:10:47;;;;;;;10.93;7.25;;;;;;;1.36;100.00;95776.69;1039086;28;20129;-69
2022/12/07 00:11:19;;;;;;;12.68;7.07;;;;;;;1.40;100.00;95780.44;1046805;28;20070;-69
2022/12/07 00:11:50;;;;;;;11.73;6.50;;;;;;;1.44;100.00;95779.03;1050777;28;20016;-70
2022/12/07 00:12:21;;;;;;;15.07;7.90;;;;;;;1.43;100.00;95774.84;1046351;28;20776;-67
2022/12/07 00:12:51;;;;;;;11.50;7.10;;;;;;;1.42;100.00;95781.03;1046627;28;20271;-68
2022/12/07 00:13:21;;;;;;;11.45;7.30;;;;;;;1.40;100.00;95777.84;1042468;28;20025;-71
2022/12/07 00:13:54;;;;;;;13.30;6.75;;;;;;;1.43;100.00;95782.63;1042865;28;20036;-69
2022/12/07 00:14:24;;;;;;;11.88;6.85;;;;;;;1.46;100.00;95781.44;1038314;28;20032;-70
2022/12/07 00:14:54;;;;;;;9.93;6.55;;;;;;;1.43;100.00;95782.63;1038919;28;20681;-71
2022/12/07 00:15:28;;;;;;;11.25;6.53;;;;;;;1.46;100.00;95781.44;1046879;28;20033;-69
2022/12/07 00:16:02;;;;;;;10.38;7.15;;;;;;;1.45;100.00;95783.22;1043552;28;20033;-69
2022/12/07 00:16:33;;;;;;;13.85;7.60;;;;;;;1.38;100.00;95782.44;1042880;28;20322;-68
2022/12/07 00:17:04;;;;;;;12.75;7.53;;;;;;;1.32;100.00;95781.47;1042310;28;20278;-69
2022/12/07 00:17:34;;;;;;;10.68;6.75;;;;;;;1.33;100.00;95779.66;1043078;28;20028;-69
2022/12/07 00:18:05;;;;;;;12.32;7.28;;;;;;;1.29;100.00;95783.66;1046697;28;20024;-67
2022/12/07 00:18:35;;;;;;;13.98;7.57;;;;;;;1.32;100.00;95780.66;1050754;28;20098;-67
2022/12/07 00:19:06;;;;;;;13.23;7.70;;;;;;;1.36;100.00;95777.47;1051008;28;20066;-69
2022/12/07 00:19:37;;;;;;;13.30;7.90;;;;;;;1.35;100.00;95781.06;1046503;28;20115;-69
2022/12/07 00:20:07;;;;;;;13.80;7.30;;;;;;;1.33;100.00;95777.09;1046803;28;20881;-67
2022/12/07 00:20:38;;;;;;;13.40;6.88;;;;;;;1.30;100.00;95780.06;1048550;28;20031;-69
2022/12/07 00:21:13;;;;;;;12.88;7.40;;;;;;;1.32;100.00;95775.50;1043196;28;20033;-70
2022/12/07 00:21:44;;;;;;;13.60;7.30;;;;;;;1.34;100.00;95779.47;1042342;28;20075;-71
2022/12/07 00:22:14;;;;;;;11.40;6.80;;;;;;;1.34;100.00;95782.06;1042804;28;20448;-69
2022/12/07 00:22:45;;;;;;;10.63;6.88;;;;;;;1.30;100.00;95780.84;1046963;28;20021;-69
2022/12/07 00:23:15;;;;;;;11.40;6.88;;;;;;;1.30;100.00;95772.31;1046826;28;20720;-69
2022/12/07 00:23:46;;;;;;;11.13;7.03;;;;;;;1.24;100.00;95786.03;1046571;28;20031;-69
2022/12/07 00:24:17;;;;;;;10.90;6.70;;;;;;;1.26;100.00;95781.47;1038289;28;20025;-71
2022/12/07 00:24:47;;;;;;;12.77;7.25;;;;;;;1.25;100.00;95785.06;1044545;28;20332;-69
2022/12/07 00:25:18;;;;;;;11.45;7.03;;;;;;;1.20;100.00;95783.06;1041970;28;20036;-69
2022/12/07 00:25:49;;;;;;;13.98;7.30;;;;;;;1.20;100.00;95783.06;1038579;28;20075;-69
2022/12/07 00:26:33;;;;;;;11.85;7.05;;;;;;;1.25;100.00;95777.31;1044291;28;20754;-69
2022/12/07 00:27:03;;;;;;;11.76;7.30;;;;;;;1.30;100.00;95782.66;1048712;28;20663;-68
2022/12/07 00:27:34;;;;;;;12.63;7.32;;;;;;;1.31;100.00;95779.09;1050837;28;20036;-69
2022/12/07 00:28:04;;;;;;;12.68;7.40;;;;;;;1.34;100.00;95778.66;1050694;28;20035;-69
2022/12/07 00:28:35;;;;;;;12.30;6.97;;;;;;;1.35;100.00;95775.09;1051070;28;20047;-71
2022/12/07 00:29:16;;;;;;;11.15;7.07;;;;;;;1.27;100.00;95764.97;1050852;28;20115;-68
2022/12/07 00:29:46;;;;;;;14.13;8.07;;;;;;;1.37;100.00;95783.44;1050592;28;20023;-69
2022/12/07 00:30:17;;;;;;;12.18;7.20;;;;;;;1.33;100.00;95777.09;1051015;28;20270;-69
2022/12/07 00:30:47;;;;;;;12.35;7.82;;;;;;;1.34;100.00;95774.31;1050830;28;20680;-70
2022/12/07 00:31:19;;;;;;;13.85;7.55;;;;;;;1.36;100.00;95776.69;1050702;28;20044;-71
2022/12/07 00:31:50;;;;;;;12.65;7.13;;;;;;;1.34;100.00;95773.50;1050852;28;20024;-68
2022/12/07 00:32:20;;;;;;;11.15;7.32;;;;;;;1.39;100.00;95776.28;1045862;28;20259;-70
2022/12/07 00:32:50;;;;;;;13.07;7.35;;;;;;;1.41;100.00;95776.88;1046876;28;20514;-69
2022/12/07 00:33:21;;;;;;;12.68;7.07;;;;;;;1.39;100.00;95774.47;1046433;28;20028;-70
2022/12/07 00:33:51;;;;;;;11.30;7.78;;;;;;;1.34;100.00;95774.31;1046858;28;20036;-68
2022/12/07 00:34:22;;;;;;;13.75;7.78;;;;;;;1.33;100.00;95782.25;1047247;28;20067;-68
2022/12/07 00:34:52;;;;;;;13.50;7.07;;;;;;;1.31;100.00;95773.94;1047036;28;20075;-68
2022/12/07 00:35:23;;;;;;;12.45;7.32;;;;;;;1.28;100.00;95779.50;1047111;28;20393;-70
2022/12/07 00:35:57;;;;;;;11.68;7.10;;;;;;;1.25;100.00;95774.72;1050788;28;20024;-69
2022/12/07 00:36:27;;;;;;;11.78;7.26;;;;;;;1.25;100.00;95769.56;1050819;28;20032;-68
2022/12/07 00:36:58;;;;;;;15.68;8.05;;;;;;;1.26;100.00;95771.13;1050988;28;20024;-68
2022/12/07 00:37:28;;;;;;;11.63;7.03;;;;;;;1.25;100.00;95774.72;1051069;28;20056;-70
2022/12/07 00:37:59;;;;;;;11.10;6.82;;;;;;;1.26;100.00;95765.97;1050812;28;20016;-69
2022/12/07 00:38:30;;;;;;;13.43;7.72;;;;;;;1.26;100.00;95765.97;1051009;28;20030;-69
2022/12/07 00:39:02;;;;;;;13.20;7.43;;;;;;;1.28;100.00;95774.31;1050650;28;20042;-69
2022/12/07 00:39:32;;;;;;;12.20;7.55;;;;;;;1.31;100.00;95771.34;1049506;28;20313;-68
2022/12/07 00:40:03;;;;;;;12.40;7.20;;;;;;;1.26;100.00;95777.09;1049683;28;20660;-68
2022/12/07 00:40:33;;;;;;;13.23;7.75;;;;;;;1.28;100.00;95776.91;1050598;28;20028;-68
2022/12/07 00:41:25;;;;;;;11.85;7.20;;;;;;;1.18;100.00;95770.38;1051262;28;20081;-69
2022/12/07 00:41:55;;;;;;;11.60;7.25;;;;;;;1.19;100.00;95768.56;1047166;28;20059;-68
2022/12/07 00:42:26;;;;;;;14.55;7.47;;;;;;;1.20;100.00;95771.94;1050672;28;20265;-69
2022/12/07 00:42:56;;;;;;;15.05;7.60;;;;;;;1.21;100.00;95770.94;1050929;28;20020;-69
2022/12/07 00:43:27;;;;;;;13.40;7.25;;;;;;;1.25;100.00;95772.94;1051168;28;20026;-69
2022/12/07 00:43:58;;;;;;;13.57;7.53;;;;;;;1.24;100.00;95770.53;1046511;28;20028;-70
2022/12/07 00:44:28;;;;;;;14.55;8.30;;;;;;;1.27;100.00;95767.56;1046520;28;20020;-67
2022/12/07 00:44:59;;;;;;;13.82;7.22;;;;;;;1.24;100.00;95768.78;1038605;28;20109;-69
2022/12/07 00:45:29;;;;;;;13.63;7.35;;;;;;;1.19;100.00;95776.31;1038513;28;20658;-69
2022/12/07 00:46:00;;;;;;;11.23;7.10;;;;;;;1.23;100.00;95774.91;1046298;28;20562;-70
2022/12/07 00:46:30;;;;;;;12.68;7.57;;;;;;;1.21;100.00;95773.53;1046998;28;20090;-69
2022/12/07 00:47:01;;;;;;;14.38;7.40;;;;;;;1.25;100.00;95774.72;1049013;28;20077;-71
2022/12/07 00:47:31;;;;;;;13.23;8.07;;;;;;;1.25;100.00;95777.31;1046519;28;20059;-70
2022/12/07 00:48:02;;;;;;;12.07;6.95;;;;;;;1.25;100.00;95770.34;1048395;28;20028;-70
2022/12/07 00:48:33;;;;;;;11.82;7.25;;;;;;;1.22;100.00;95772.53;1050626;28;20016;-69
2022/12/07 00:49:03;;;;;;;14.38;7.50;;;;;;;1.24;100.00;95767.94;1046607;28;20033;-71
2022/12/07 00:49:34;;;;;;;11.55;6.80;;;;;;;1.21;100.00;95768.34;1040915;28;20397;-69
2022/12/07 00:50:04;;;;;;;14.10;7.85;;;;;;;1.19;100.00;95776.31;1042257;28;20025;-68
2022/12/07 00:50:35;;;;;;;14.35;7.88;;;;;;;1.22;100.00;95775.91;1042707;28;20025;-67
2022/12/07 00:51:06;;;;;;;11.48;7.22;;;;;;;1.30;100.00;95777.47;1050829;28;20024;-69
2022/12/07 00:51:36;;;;;;;11.68;7.47;;;;;;;1.31;100.00;95779.09;1050435;28;20517;-68
2022/12/07 00:52:07;;;;;;;11.20;6.88;;;;;;;1.30;100.00;95772.31;1046883;28;20034;-68
2022/12/07 00:52:37;;;;;;;13.57;7.20;;;;;;;1.28;100.00;95775.13;1045635;28;20040;-69
2022/12/07 00:53:08;;;;;;;11.68;6.75;;;;;;;1.31;100.00;95773.94;1046717;28;20540;-70
2022/12/07 00:53:38;;;;;;;12.10;7.28;;;;;;;1.31;100.00;95779.09;1046620;28;20029;-69
2022/12/07 00:54:09;;;;;;;13.13;7.40;;;;;;;1.29;100.00;95776.69;1042224;28;20541;-69
2022/12/07 00:54:39;;;;;;;10.07;6.40;;;;;;;1.32;100.00;95775.50;1042522;28;20033;-69
2022/12/07 00:55:10;;;;;;;12.57;7.07;;;;;;;1.31;100.00;95771.34;1038327;28;20140;-68
2022/12/07 00:55:40;;;;;;;11.38;7.07;;;;;;;1.27;100.00;95767.56;1038241;28;20063;-68
2022/12/07 00:56:12;;;;;;;11.88;7.43;;;;;;;1.25;100.00;95774.72;1042931;28;20231;-70
2022/12/07 00:56:43;;;;;;;11.05;7.13;;;;;;;1.24;100.00;95773.94;1046583;28;20624;-69
2022/12/07 00:57:13;;;;;;;11.65;6.78;;;;;;;1.25;100.00;95772.94;1046621;28;20267;-70
2022/12/07 00:57:44;;;;;;;13.57;8.20;;;;;;;1.24;100.00;95771.34;1046666;28;20052;-69
2022/12/07 00:58:14;;;;;;;11.95;7.03;;;;;;;1.25;100.00;95770.34;1046619;28;20029;-68
2022/12/07 00:58:58;;;;;;;11.88;7.13;;;;;;;1.22;100.00;95767.38;1042632;28;20021;-67
2022/12/07 00:59:28;;;;;;;12.93;7.38;;;;;;;1.24;100.00;95773.13;1046528;28;20028;-68
2022/12/07 01:00:00;;;;;;;11.95;6.97;;;;;;;1.26;100.00;95771.13;1042567;28;20263;-70
2022/12/07 01:00:30;;;;;;;13.18;7.22;;;;;;;1.24;100.00;95773.13;1044339;28;20144;-68
2022/12/07 01:01:02;;;;;;;11.63;6.57;;;;;;;1.26;100.00;95778.91;1042208;28;20263;-68
2022/12/07 01:01:34;;;;;;;11.98;7.15;;;;;;;1.27;100.00;95772.72;1042992;28;20526;-67
2022/12/07 01:02:04;;;;;;;12.18;6.88;;;;;;;1.27;100.00;95778.69;1046478;28;20996;-68
2022/12/07 01:02:35;;;;;;;11.90;6.97;;;;;;;1.20;100.00;95772.72;1045824;28;20066;-67
2022/12/07 01:03:06;;;;;;;13.93;7.53;;;;;;;1.15;100.00;95769.97;1047162;28;20038;-68
2022/12/07 01:03:37;;;;;;;11.65;6.70;;;;;;;1.13;100.00;95771.97;1046379;28;20032;-68
2022/12/07 01:04:07;;;;;;;11.50;7.40;;;;;;;1.14;100.00;95774.34;1042664;28;20894;-68
2022/12/07 01:04:38;;;;;;;11.38;6.82;;;;;;;1.10;100.00;95770.56;1038492;28;20045;-70
2022/12/07 01:05:08;;;;;;;12.57;7.38;;;;;;;1.16;100.00;95771.56;1038358;28;20036;-68
2022/12/07 01:05:39;;;;;;;11.38;7.40;;;;;;;1.17;100.00;95768.78;1038516;28;20584;-68
2022/12/07 01:06:09;;;;;;;12.82;7.40;;;;;;;1.16;100.00;95772.34;1042403;28;20025;-70
2022/12/07 01:06:40;;;;;;;11.38;7.55;;;;;;;1.16;100.00;95772.34;1038017;28;20463;-68
2022/12/07 01:07:10;;;;;;;11.75;7.13;;;;;;;1.20;100.00;95770.16;1038679;28;20037;-68
2022/12/07 01:07:41;;;;;;;12.35;7.63;;;;;;;1.23;100.00;95772.34;1044265;28;20021;-68
2022/12/07 01:08:11;;;;;;;13.30;7.78;;;;;;;1.25;100.00;95769.56;1043042;28;20471;-69
2022/12/07 01:08:42;;;;;;;11.93;7.28;;;;;;;1.24;100.00;95775.72;1050754;28;20020;-70
2022/12/07 01:09:12;;;;;;;13.05;7.72;;;;;;;1.24;100.00;95768.78;1050507;28;20031;-68
2022/12/07 01:09:43;;;;;;;13.30;7.40;;;;;;;1.26;100.00;95771.13;1051048;28;20035;-68
2022/12/07 01:10:14;;;;;;;11.98;7.53;;;;;;;1.26;100.00;95771.13;1051115;28;20114;-69
2022/12/07 01:10:44;;;;;;;11.13;6.88;;;;;;;1.23;100.00;95767.16;1051109;28;20073;-68
2022/12/07 01:11:17;;;;;;;11.85;7.60;;;;;;;1.26;100.00;95771.13;1051055;28;20051;-65
2022/12/07 01:11:48;;;;;;;12.45;7.07;;;;;;;1.28;100.00;95774.31;1046459;28;20024;-68
2022/12/07 01:12:18;;;;;;;13.18;7.72;;;;;;;1.28;100.00;95775.13;1046375;28;20277;-68
2022/12/07 01:12:49;;;;;;;13.35;7.63;;;;;;;1.28;100.00;95766.56;1046300;28;20039;-68
2022/12/07 01:13:19;;;;;;;11.82;7.28;;;;;;;1.29;100.00;95775.91;1042591;28;20521;-70
2022/12/07 01:13:51;;;;;;;10.80;6.72;;;;;;;1.26;100.00;95773.72;1046833;28;20020;-69
2022/12/07 01:14:21;;;;;;;11.95;7.47;;;;;;;1.27;100.00;95770.91;1034043;28;20018;-69
2022/12/07 01:14:52;;;;;;;12.88;7.07;;;;;;;1.27;100.00;95764.97;1030223;28;20291;-69
2022/12/07 01:15:22;;;;;;;11.93;7.40;;;;;;;1.23;100.00;95767.16;1034587;28;20026;-68
2022/12/07 01:15:59;;;;;;;13.13;7.10;;;;;;;1.20;100.00;95777.91;1038570;28;20034;-68
2022/12/07 01:16:30;;;;;;;11.20;7.00;;;;;;;1.21;100.00;95778.69;1043687;28;20095;-69
2022/12/07 01:17:01;;;;;;;12.18;7.55;;;;;;;1.21;100.00;95774.34;1046382;28;20341;-68
2022/12/07 01:17:31;;;;;;;9.65;6.40;;;;;;;1.21;100.00;95773.53;1046462;28;20263;-70
2022/12/07 01:18:02;;;;;;;12.02;7.05;;;;;;;1.24;100.00;95783.47;1047271;28;20044;-70
2022/12/07 01:18:34;;;;;;;10.35;6.88;;;;;;;1.24;100.00;95773.13;1051052;28;20439;-68
2022/12/07 01:19:05;;;;;;;13.52;6.88;;;;;;;1.28;100.00;95779.50;1051170;28;20016;-70
2022/12/07 01:19:35;;;;;;;12.00;7.32;;;;;;;1.24;100.00;95773.13;1050353;28;20028;-67
2022/12/07 01:20:06;;;;;;;12.52;7.32;;;;;;;1.21;100.00;95770.94;1050730;28;20017;-69
2022/12/07 01:20:37;;;;;;;11.74;6.94;;;;;;;1.19;100.00;95773.75;1048669;28;20020;-69
2022/12/07 01:21:11;;;;;;;13.38;7.65;;;;;;;1.24;100.00;95770.53;1043230;28;20419;-68
2022/12/07 01:21:41;;;;;;;11.92;6.96;;;;;;;1.27;100.00;95777.88;1050456;28;20032;-68
2022/12/07 01:22:12;;;;;;;10.98;7.13;;;;;;;1.26;100.00;95773.72;1050931;28;20097;-67
2022/12/07 01:22:43;;;;;;;13.80;7.47;;;;;;;1.26;100.00;95777.09;1050951;28;20149;-69
2022/12/07 01:23:13;;;;;;;12.27;7.13;;;;;;;1.24;100.00;95773.13;1050982;28;20011;-68
2022/12/07 01:23:43;;;;;;;10.68;6.95;;;;;;;1.22;100.00;95769.97;1049243;28;20028;-66
2022/12/07 01:24:14;;;;;;;17.63;6.95;;;;;;;1.22;100.00;95780.31;1051198;28;20004;-70
2022/12/07 01:24:46;;;;;;;10.93;6.85;;;;;;;1.22;100.00;95780.31;1051135;28;20501;-68
2022/12/07 01:25:17;;;;;;;10.95;6.80;;;;;;;1.23;100.00;95780.09;1051019;28;20099;-69
2022/12/07 01:25:56;;;;;;;11.80;6.88;;;;;;;1.16;100.00;95772.34;1050931;28;20265;-68
2022/12/07 01:26:27;;;;;;;11.93;7.40;;;;;;;1.13;100.00;95770.16;1050886;28;20770;-68
2022/12/07 01:26:57;;;;;;;14.02;7.45;;;;;;;1.17;100.00;95779.13;1051024;28;20255;-68
2022/12/07 01:27:28;;;;;;;13.40;7.90;;;;;;;1.13;100.00;95774.53;1051623;28;20036;-71
2022/12/07 01:27:58;;;;;;;12.43;7.10;;;;;;;1.18;100.00;95770.38;1050723;28;20016;-69
2022/12/07 01:28:29;;;;;;;12.80;7.22;;;;;;;1.21;100.00;95773.53;1051508;28;20012;-68
2022/12/07 01:29:00;;;;;;;13.38;7.18;;;;;;;1.22;100.00;95773.34;1051452;28;20373;-68
2022/12/07 01:29:31;;;;;;;11.30;7.13;;;;;;;1.22;100.00;95781.09;1051776;28;20020;-68
2022/12/07 01:30:02;;;;;;;11.20;7.25;;;;;;;1.26;100.00;95779.69;1043470;28;20259;-69
2022/12/07 01:30:32;;;;;;;11.02;6.72;;;;;;;1.28;100.00;95774.31;1039803;28;20032;-69
2022/12/07 01:31:11;;;;;;;11.00;7.15;;;;;;;1.29;100.00;95776.69;1041558;28;20032;-69
2022/12/07 01:31:41;;;;;;;11.18;6.85;;;;;;;1.27;100.00;95775.31;1041826;28;20009;-68
2022/12/07 01:32:12;;;;;;;11.30;6.65;;;;;;;1.27;100.00;95773.50;1048310;28;20277;-70
2022/12/07 01:32:42;;;;;;;10.45;6.85;;;;;;;1.28;100.00;95774.31;1051690;28;20043;-67
2022/12/07 01:33:13;;;;;;;12.05;7.13;;;;;;;1.29;100.00;95775.91;1044556;28;20020;-68
2022/12/07 01:33:45;;;;;;;11.38;7.22;;;;;;;1.31;100.00;95776.50;1046062;28;20017;-68
2022/12/07 01:34:15;;;;;;;16.02;7.95;;;;;;;1.32;100.00;95775.50;1043751;28;20017;-67
2022/12/07 01:34:47;;;;;;;10.52;6.90;;;;;;;1.27;100.00;95775.31;1039530;28;20271;-68
2022/12/07 01:35:18;;;;;;;12.05;7.38;;;;;;;1.27;100.00;95772.72;1041402;28;20025;-69
2022/12/07 01:35:48;;;;;;;10.95;6.40;;;;;;;1.30;100.00;95775.69;1048346;28;20251;-68
2022/12/07 01:36:23;;;;;;;11.55;6.72;;;;;;;1.34;100.00;95776.06;1051807;28;20020;-68
2022/12/07 01:36:54;;;;;;;13.02;7.35;;;;;;;1.30;100.00;95777.47;1052355;28;20069;-67
2022/12/07 01:37:24;;;;;;;10.40;6.50;;;;;;;1.26;100.00;95779.69;1052301;28;20254;-69
2022/12/07 01:37:55;;;;;;;11.55;7.00;;;;;;;1.20;100.00;95779.69;1051775;28;20354;-66
2022/12/07 01:38:25;;;;;;;12.48;7.63;;;;;;;1.16;100.00;95781.91;1052128;28;20027;-68
2022/12/07 01:38:57;;;;;;;12.15;7.05;;;;;;;1.14;100.00;95779.53;1051591;28;20016;-67
2022/12/07 01:39:28;;;;;;;12.27;7.38;;;;;;;1.17;100.00;95778.31;1052002;28;20020;-69
2022/12/07 01:39:58;;;;;;;11.60;6.90;;;;;;;1.18;100.00;95774.75;1052124;28;20342;-70
2022/12/07 01:40:29;;;;;;;11.88;6.97;;;;;;;1.23;100.00;95782.66;1051679;28;20085;-68
2022/12/07 01:41:00;;;;;;;12.02;7.03;;;;;;;1.27;100.00;95772.72;1052184;28;20016;-68
2022/12/07 01:41:32;;;;;;;14.63;7.18;;;;;;;1.29;100.00;95781.06;1048042;28;20020;-68
2022/12/07 01:42:03;;;;;;;12.95;6.90;;;;;;;1.23;100.00;95774.91;1047513;28;20630;-69
2022/12/07 01:42:34;;;;;;;11.50;6.78;;;;;;;1.21;100.00;95771.75;1042975;28;20264;-68
2022/12/07 01:43:18;;;;;;;10.60;6.50;;;;;;;1.14;100.00;95776.94;1039990;28;20143;-69
2022/12/07 01:44:16;;;;;;;10.52;6.55;;;;;;;1.22;100.00;95775.13;1041649;28;20307;-69
2022/12/07 01:45:14;;;;;;;14.44;7.02;;;;;;;1.25;100.00;95779.91;1049080;28;20261;-69
2022/12/07 01:45:45;;;;;;;12.02;6.97;;;;;;;1.23;100.00;95787.06;1051942;28;20424;-69
2022/12/07 01:46:15;;;;;;;15.23;7.45;;;;;;;1.26;100.00;95776.31;1051818;28;20269;-68
2022/12/07 01:46:48;;;;;;;12.43;7.22;;;;;;;1.26;100.00;95781.47;1052079;28;20391;-68
2022/12/07 01:47:18;;;;;;;11.95;7.53;;;;;;;1.25;100.00;95774.72;1047494;28;20020;-69
2022/12/07 01:47:53;;;;;;;11.20;7.45;;;;;;;1.22;100.00;95769.97;1048388;28;20270;-69
2022/12/07 01:48:44;;;;;;;11.48;7.20;;;;;;;1.18;100.00;95779.91;1047527;28;20021;-68
2022/12/07 01:49:41;;;;;;;13.30;7.32;;;;;;;1.15;100.00;95770.78;1048910;28;20324;-70
2022/12/07 01:50:12;;;;;;;12.44;7.50;;;;;;;1.16;100.00;95771.56;1051386;28;20586;-69
2022/12/07 01:50:43;;;;;;;13.27;6.95;;;;;;;1.12;100.00;95776.34;1048561;28;20000;-69
2022/12/07 01:51:13;;;;;;;12.70;7.32;;;;;;;1.11;100.00;95776.56;1044190;28;20023;-69
2022/12/07 01:51:45;;;;;;;12.05;7.13;;;;;;;1.15;100.00;95769.97;1035684;28;20022;-69
2022/12/07 01:52:26;;;;;;;13.48;7.84;;;;;;;1.14;100.00;95773.53;1032653;28;20480;-69
2022/12/07 01:52:57;;;;;;;14.35;7.60;;;;;;;1.16;100.00;95769.75;1041441;28;20052;-69
2022/12/07 01:53:28;;;;;;;14.48;7.60;;;;;;;1.17;100.00;95773.97;1041900;28;20321;-69
2022/12/07 01:53:59;;;;;;;15.60;8.40;;;;;;;1.20;100.00;95772.72;1041408;28;20005;-70
2022/12/07 01:54:29;;;;;;;12.80;7.60;;;;;;;1.20;100.00;95766.78;1044272;28;20264;-69
2022/12/07 01:55:02;;;;;;;11.75;7.13;;;;;;;1.17;100.00;95771.38;1036178;28;20018;-69
2022/12/07 01:55:33;;;;;;;13.04;7.76;;;;;;;1.05;100.00;95751.53;1032029;28;20391;-69
2022/12/07 01:56:03;;;;;;;11.05;7.35;;;;;;;1.14;100.00;95769.19;1031883;28;20026;-69
2022/12/07 01:56:34;;;;;;;12.70;6.93;;;;;;;1.11;100.00;95767.00;1036256;28;20017;-68
2022/12/07 01:57:04;;;;;;;13.57;8.02;;;;;;;1.08;100.00;95769.19;1036048;28;20010;-68
2022/12/07 01:57:41;;;;;;;11.80;7.15;;;;;;;1.06;100.00;95771.19;1040001;28;20048;-69
2022/12/07 01:58:12;;;;;;;11.98;7.40;;;;;;;1.08;100.00;95769.19;1040684;28;20025;-70
2022/12/07 01:58:42;;;;;;;12.95;7.47;;;;;;;1.10;100.00;95765.41;1041010;28;20323;-69
2022/12/07 01:59:13;;;;;;;10.68;6.75;;;;;;;1.09;100.00;95761.22;1044572;28;20051;-70
2022/12/07 01:59:47;;;;;;;10.27;6.70;;;;;;;1.13;100.00;95765.00;1047871;28;20036;-69
2022/12/07 02:00:18;;;;;;;12.48;6.95;;;;;;;1.11;100.00;95759.25;1052004;28;20024;-69
2022/12/07 02:00:48;;;;;;;14.60;7.03;;;;;;;1.09;100.00;95756.06;1051948;28;20341;-67
2022/12/07 02:01:19;;;;;;;12.20;7.35;;;;;;;1.07;100.00;95758.06;1051589;28;20016;-69
2022/12/07 02:01:49;;;;;;;12.27;7.15;;;;;;;1.09;100.00;95760.44;1043698;28;20099;-68
2022/12/07 02:02:24;;;;;;;11.48;6.97;;;;;;;1.06;100.00;95756.47;1038571;28;20071;-68
2022/12/07 02:03:04;;;;;;;10.80;6.70;;;;;;;1.05;100.00;95757.47;1036151;28;20010;-66
2022/12/07 02:03:37;;;;;;;11.02;6.90;;;;;;;1.07;100.00;95758.06;1039049;28;20087;-66
2022/12/07 02:04:08;;;;;;;10.76;6.94;;;;;;;1.10;100.00;95760.22;1037619;28;20089;-70
2022/12/07 02:04:38;;;;;;;13.73;7.07;;;;;;;1.07;100.00;95765.00;1035168;28;20569;-69
2022/12/07 02:05:09;;;;;;;11.02;6.85;;;;;;;1.08;100.00;95758.88;1035582;28;20025;-70
2022/12/07 02:05:40;;;;;;;11.90;7.07;;;;;;;1.05;100.00;95762.63;1040130;28;20518;-69
2022/12/07 02:06:13;;;;;;;14.28;7.82;;;;;;;1.08;100.00;95764.03;1039495;28;20371;-68
2022/12/07 02:06:43;;;;;;;10.96;7.22;;;;;;;0.97;100.00;95743.97;1043543;28;20548;-68
2022/12/07 02:07:14;;;;;;;12.10;7.00;;;;;;;1.05;100.00;95764.44;1043589;28;20098;-69
2022/12/07 02:07:44;;;;;;;12.23;7.57;;;;;;;1.06;100.00;95750.50;1043789;28;20109;-68
2022/12/07 02:08:15;;;;;;;13.80;6.93;;;;;;;1.04;100.00;95755.91;1043818;28;20047;-70
2022/12/07 02:08:45;;;;;;;12.57;7.68;;;;;;;1.05;100.00;95757.47;1047713;28;20048;-68
2022/12/07 02:09:16;;;;;;;13.05;7.38;;;;;;;1.05;100.00;95749.72;1051340;28;20012;-69
2022/12/07 02:09:46;;;;;;;11.93;7.05;;;;;;;1.02;100.00;95757.88;1052204;28;20020;-68
2022/12/07 02:10:22;;;;;;;10.95;6.38;;;;;;;0.95;100.00;95759.69;1047432;28;20035;-68
2022/12/07 02:10:52;;;;;;;10.14;6.52;;;;;;;0.97;100.00;95754.31;1043335;28;20013;-68
2022/12/07 02:11:22;;;;;;;10.85;6.43;;;;;;;0.97;100.00;95762.03;1043695;28;20045;-68
2022/12/07 02:11:53;;;;;;;11.65;6.72;;;;;;;0.98;100.00;95764.44;1044243;28;20020;-69
2022/12/07 02:12:23;;;;;;;11.48;7.15;;;;;;;0.98;100.00;95771.41;1043299;28;20075;-68
2022/12/07 02:12:59;;;;;;;10.85;6.97;;;;;;;0.98;100.00;95768.81;1047410;28;20042;-70
2022/12/07 02:13:31;;;;;;;12.84;7.42;;;;;;;0.80;100.00;95743.59;1047537;28;20024;-69
2022/12/07 02:14:02;;;;;;;12.68;7.38;;;;;;;0.93;100.00;95761.66;1047524;28;20478;-70
2022/12/07 02:14:33;;;;;;;11.50;7.18;;;;;;;0.97;100.00;95765.41;1047601;28;20021;-68
2022/12/07 02:15:04;;;;;;;12.27;7.07;;;;;;;0.98;100.00;95753.31;1040329;28;20367;-70
2022/12/07 02:15:39;;;;;;;12.13;7.55;;;;;;;0.97;100.00;95762.84;1039556;28;20032;-69
2022/12/07 02:16:48;;;;;;;12.22;7.64;;;;;;;1.01;100.00;95758.09;1039199;28;20470;-69
2022/12/07 02:17:24;;;;;;;12.98;6.74;;;;;;;1.00;100.00;95753.91;1045240;28;20404;-65
2022/12/07 02:18:24;;;;;;;11.18;6.80;;;;;;;0.82;100.00;95739.81;1040987;28;20033;-67
2022/12/07 02:19:24;;;;;;;12.05;7.25;;;;;;;1.02;100.00;95762.25;1042452;28;20462;-67
2022/12/07 02:20:17;;;;;;;12.82;6.98;;;;;;;0.99;100.00;95755.69;1047125;28;20746;-68
2022/12/07 02:21:03;;;;;;;12.66;7.34;;;;;;;0.96;100.00;95755.31;1047766;28;20571;-69
2022/12/07 02:21:36;;;;;;;12.64;7.20;;;;;;;0.94;100.00;95752.94;1042865;28;20129;-68
2022/12/07 02:22:28;;;;;;;14.14;7.56;;;;;;;0.97;100.00;95752.50;1043553;28;20021;-68
2022/12/07 02:23:23;;;;;;;11.50;6.82;;;;;;;0.99;100.00;95755.69;1049286;28;20382;-68
2022/12/07 02:24:11;;;;;;;11.94;7.00;;;;;;;0.88;100.00;95740.81;1047337;28;20032;-69
2022/12/07 02:24:53;;;;;;;13.16;6.68;;;;;;;0.96;100.00;95753.50;1039421;28;20047;-69
2022/12/07 02:25:44;;;;;;;12.16;6.84;;;;;;;1.00;100.00;95754.69;1039585;28;20396;-67
2022/12/07 02:26:48;;;;;;;9.82;5.95;;;;;;;1.04;100.00;95757.66;1049322;28;20026;-67
2022/12/07 02:27:43;;;;;;;12.54;6.88;;;;;;;1.07;100.00;95767.59;1048816;28;20417;-67
2022/12/07 02:28:22;;;;;;;13.44;7.10;;;;;;;1.07;100.00;95758.06;1050301;28;20024;-68
2022/12/07 02:29:25;;;;;;;11.98;7.00;;;;;;;1.07;100.00;95754.69;1050585;28;20028;-68
2022/12/07 02:29:58;;;;;;;12.00;7.76;;;;;;;1.05;100.00;95754.09;1046748;28;20569;-68
2022/12/07 02:30:31;;;;;;;14.26;7.02;;;;;;;1.04;100.00;95755.91;1043904;28;20829;-68
2022/12/07 02:31:08;;;;;;;13.34;7.04;;;;;;;1.06;100.00;95756.47;1042874;28;20028;-69
2022/12/07 02:31:42;;;;;;;13.82;7.56;;;;;;;1.07;100.00;95757.25;1044626;28;20029;-67
2022/12/07 02:32:17;;;;;;;15.22;7.54;;;;;;;1.04;100.00;95758.47;1048084;28;20043;-67
2022/12/07 02:33:09;;;;;;;12.80;6.70;;;;;;;1.06;100.00;95760.84;1051107;28;20032;-71
2022/12/07 02:33:46;;;;;;;10.42;6.60;;;;;;;1.07;100.00;95760.63;1049350;28;20506;-71